createdAt,value
2023-02-17T00:00:27.780Z,80.87
2023-02-17T00:01:33.953Z,81.86
2023-02-17T00:02:13.000Z,81.73
2023-02-17T00:02:59.381Z,80.99
2023-02-17T00:05:06.852Z,80.44
2023-02-17T00:05:46.097Z,81.25
2023-02-17T00:06:28.591Z,80.68
2023-02-17T00:07:07.993Z,80.61
2023-02-17T00:07:48.320Z,80.55
2023-02-17T00:09:07.713Z,80.31
2023-02-17T00:10:32.797Z,80.49
2023-02-17T00:11:13.001Z,80.49
2023-02-17T00:12:00.021Z,80.78
2023-02-17T00:12:46.812Z,79.63
2023-02-17T00:13:29.002Z,79.75
2023-02-17T00:14:12.239Z,80.55
2023-02-17T00:14:52.127Z,80.08
2023-02-17T00:15:30.971Z,79.73
2023-02-17T00:16:19.330Z,79.65
2023-02-17T00:16:58.863Z,79.65
2023-02-17T00:17:39.355Z,79.82
2023-02-17T00:18:18.515Z,79.58
2023-02-17T00:19:25.991Z,79.82
2023-02-17T00:20:46.841Z,79.41
2023-02-17T00:21:29.027Z,79.02
2023-02-17T00:22:08.024Z,78.85
2023-02-17T00:22:46.955Z,77.12
2023-02-17T00:23:25.943Z,76.64
2023-02-17T00:24:05.096Z,76.07
2023-02-17T00:24:44.063Z,75.52
2023-02-17T00:25:24.274Z,75.81
2023-02-17T00:26:07.983Z,77.14
2023-02-17T00:26:50.230Z,76.64
2023-02-17T00:27:30.020Z,76.49
2023-02-17T00:28:09.970Z,77.99
2023-02-17T00:28:50.445Z,79.15
2023-02-17T00:29:54.381Z,80.53
2023-02-17T00:31:16.592Z,80.93
2023-02-17T00:31:57.350Z,80.38
2023-02-17T00:32:37.837Z,81.68
2023-02-17T00:33:21.286Z,80.80
2023-02-17T00:35:23.357Z,80.54
2023-02-17T00:36:12.350Z,81.51
2023-02-17T00:37:40.515Z,80.45
2023-02-17T00:38:19.906Z,80.73
2023-02-17T00:39:06.957Z,80.52
2023-02-17T00:39:49.141Z,80.41
2023-02-17T00:40:30.932Z,79.84
2023-02-17T00:41:10.998Z,80.41
2023-02-17T00:41:50.395Z,80.18
2023-02-17T00:42:30.958Z,79.79
2023-02-17T00:43:14.395Z,79.87
2023-02-17T00:43:55.275Z,79.93
2023-02-17T00:44:34.488Z,79.24
2023-02-17T00:45:13.989Z,79.12
2023-02-17T00:45:56.106Z,76.83
2023-02-17T00:46:36.056Z,76.32
2023-02-17T00:48:18.853Z,76.71
2023-02-17T00:49:37.398Z,79.57
2023-02-17T00:50:41.810Z,79.38
2023-02-17T00:52:41.668Z,79.88
2023-02-17T00:54:01.956Z,79.92
2023-02-17T00:54:43.979Z,80.04
2023-02-17T00:55:24.038Z,80.60
2023-02-17T00:56:04.894Z,79.95
2023-02-17T00:56:46.072Z,80.55
2023-02-17T00:57:26.482Z,80.38
2023-02-17T00:58:30.282Z,80.33
2023-02-17T01:00:33.391Z,79.17
2023-02-17T01:01:52.345Z,79.13
2023-02-17T01:03:12.036Z,78.98
2023-02-17T01:03:59.339Z,78.44
2023-02-17T01:04:46.811Z,79.31
2023-02-17T01:05:26.920Z,78.56
2023-02-17T01:06:06.988Z,78.95
2023-02-17T01:06:53.800Z,78.76
2023-02-17T01:07:33.990Z,78.46
2023-02-17T01:08:15.087Z,78.83
2023-02-17T01:08:56.108Z,78.92
2023-02-17T01:09:34.985Z,78.00
2023-02-17T01:10:13.868Z,77.87
2023-02-17T01:10:53.767Z,77.38
2023-02-17T01:13:33.342Z,75.65
2023-02-17T01:15:14.680Z,77.31
2023-02-17T01:15:53.581Z,76.83
2023-02-17T01:16:42.221Z,78.80
2023-02-17T01:17:23.934Z,78.45
2023-02-17T01:18:03.223Z,78.85
2023-02-17T01:18:42.940Z,78.53
2023-02-17T01:19:21.924Z,78.55
2023-02-17T01:20:01.020Z,79.63
2023-02-17T01:20:44.662Z,78.61
2023-02-17T01:22:14.781Z,78.88
2023-02-17T01:24:00.609Z,78.69
2023-02-17T01:25:19.361Z,78.47
2023-02-17T01:25:58.721Z,79.29
2023-02-17T01:26:40.652Z,79.12
2023-02-17T01:28:45.981Z,77.93
2023-02-17T01:29:28.138Z,78.32
2023-02-17T01:30:08.406Z,78.79
2023-02-17T01:30:49.597Z,78.50
2023-02-17T01:31:32.254Z,78.65
2023-02-17T01:32:11.676Z,78.12
2023-02-17T01:32:55.268Z,78.33
2023-02-17T01:34:20.914Z,78.67
2023-02-17T01:35:00.002Z,77.86
2023-02-17T01:35:42.392Z,78.24
2023-02-17T01:36:46.838Z,77.64
2023-02-17T01:38:17.146Z,77.71
2023-02-17T01:38:55.808Z,77.36
2023-02-17T01:39:36.322Z,77.90
2023-02-17T01:40:15.811Z,77.13
2023-02-17T01:40:56.374Z,76.93
2023-02-17T01:41:38.973Z,77.49
2023-02-17T01:42:42.662Z,77.73
2023-02-17T01:43:21.852Z,77.45
2023-02-17T01:44:11.840Z,77.17
2023-02-17T01:45:35.350Z,77.45
2023-02-17T01:46:15.279Z,77.14
2023-02-17T01:46:57.166Z,77.47
2023-02-17T01:47:40.772Z,77.12
2023-02-17T01:48:20.659Z,77.69
2023-02-17T01:49:11.246Z,77.35
2023-02-17T01:49:59.923Z,77.17
2023-02-17T01:50:48.639Z,77.48
2023-02-17T01:51:34.721Z,77.34
2023-02-17T01:52:20.396Z,77.35
2023-02-17T01:53:04.726Z,77.80
2023-02-17T01:54:08.333Z,76.95
2023-02-17T01:55:34.499Z,76.83
2023-02-17T01:56:18.022Z,77.48
2023-02-17T01:57:02.365Z,77.02
2023-02-17T01:57:45.295Z,76.66
2023-02-17T01:58:26.852Z,77.24
2023-02-17T01:59:16.338Z,76.22
2023-02-17T01:59:59.188Z,77.15
2023-02-17T02:00:40.918Z,76.85
2023-02-17T02:01:20.762Z,76.98
2023-02-17T02:02:05.206Z,76.69
2023-02-17T02:02:49.203Z,76.65
2023-02-17T02:03:34.800Z,76.83
2023-02-17T02:04:17.175Z,76.23
2023-02-17T02:04:57.412Z,76.70
2023-02-17T02:05:41.207Z,75.96
2023-02-17T02:06:28.152Z,76.51
2023-02-17T02:07:13.497Z,76.29
2023-02-17T02:07:53.795Z,76.51
2023-02-17T02:08:45.945Z,76.43
2023-02-17T02:09:31.635Z,76.50
2023-02-17T02:10:14.425Z,76.17
2023-02-17T02:10:57.040Z,76.12
2023-02-17T02:12:00.847Z,76.26
2023-02-17T02:13:25.950Z,75.82
2023-02-17T02:14:10.585Z,76.25
2023-02-17T02:15:00.487Z,76.58
2023-02-17T02:16:01.013Z,76.37
2023-02-17T02:16:49.623Z,76.59
2023-02-17T02:17:53.133Z,76.20
2023-02-17T02:18:48.536Z,76.26
2023-02-17T02:20:05.515Z,77.22
2023-02-17T02:21:22.771Z,76.71
2023-02-17T02:22:29.566Z,76.92
2023-02-17T02:24:09.849Z,77.51
2023-02-17T02:25:05.859Z,76.91
2023-02-17T02:26:18.947Z,77.17
2023-02-17T02:28:09.411Z,77.69
2023-02-17T02:29:44.363Z,77.39
2023-02-17T02:31:10.257Z,77.95
2023-02-17T02:31:50.813Z,77.25
2023-02-17T02:32:31.265Z,77.40
2023-02-17T02:33:42.213Z,77.93
2023-02-17T02:35:16.828Z,78.04
2023-02-17T02:36:03.743Z,77.27
2023-02-17T02:37:12.636Z,77.61
2023-02-17T02:38:13.461Z,76.95
2023-02-17T02:39:39.467Z,77.52
2023-02-17T02:41:12.936Z,77.58
2023-02-17T02:42:04.498Z,77.43
2023-02-17T02:42:52.238Z,77.12
2023-02-17T02:43:32.325Z,77.46
2023-02-17T02:44:35.435Z,77.28
2023-02-17T02:45:55.198Z,76.98
2023-02-17T02:47:00.016Z,77.10
2023-02-17T02:48:37.914Z,77.04
2023-02-17T02:49:57.322Z,77.09
2023-02-17T02:51:05.818Z,76.87
2023-02-17T02:51:57.782Z,76.79
2023-02-17T02:53:00.981Z,77.29
2023-02-17T02:54:10.177Z,77.12
2023-02-17T02:54:50.012Z,77.08
2023-02-17T02:55:29.178Z,77.02
2023-02-17T02:56:45.338Z,76.90
2023-02-17T02:58:38.814Z,77.20
2023-02-17T03:00:13.344Z,76.53
2023-02-17T03:01:14.269Z,76.48
2023-02-17T03:01:56.786Z,76.85
2023-02-17T03:02:57.638Z,76.77
2023-02-17T03:03:36.942Z,76.47
2023-02-17T03:04:38.991Z,76.48
2023-02-17T03:05:27.879Z,76.89
2023-02-17T03:06:30.858Z,76.72
2023-02-17T03:08:19.476Z,77.22
2023-02-17T03:08:59.752Z,77.12
2023-02-17T03:09:40.793Z,76.56
2023-02-17T03:11:03.338Z,77.04
2023-02-17T03:12:25.501Z,77.28
2023-02-17T03:13:44.593Z,77.04
2023-02-17T03:14:23.761Z,77.10
2023-02-17T03:15:14.419Z,76.67
2023-02-17T03:15:54.250Z,76.80
2023-02-17T03:16:35.283Z,76.95
2023-02-17T03:17:14.204Z,76.51
2023-02-17T03:17:57.829Z,77.00
2023-02-17T03:18:37.066Z,77.01
2023-02-17T03:19:19.533Z,77.08
2023-02-17T03:20:36.839Z,76.88
2023-02-17T03:21:17.865Z,77.00
2023-02-17T03:22:40.796Z,76.85
2023-02-17T03:24:38.266Z,76.33
2023-02-17T03:25:19.370Z,76.80
2023-02-17T03:26:39.161Z,76.69
2023-02-17T03:27:56.674Z,76.26
2023-02-17T03:28:36.156Z,76.29
2023-02-17T03:29:39.813Z,76.80
2023-02-17T03:30:18.418Z,76.38
2023-02-17T03:30:54.276Z,76.56
2023-02-17T03:31:34.922Z,76.71
2023-02-17T03:32:15.172Z,76.64
2023-02-17T03:33:02.039Z,76.23
2023-02-17T03:33:43.164Z,76.26
2023-02-17T03:34:22.229Z,76.14
2023-02-17T03:35:01.552Z,76.69
2023-02-17T03:35:41.764Z,75.98
2023-02-17T03:36:21.145Z,75.13
2023-02-17T03:37:00.118Z,76.08
2023-02-17T03:37:39.103Z,75.97
2023-02-17T03:38:43.037Z,75.98
2023-02-17T03:40:01.343Z,75.95
2023-02-17T03:40:41.758Z,76.44
2023-02-17T03:41:22.703Z,76.20
2023-02-17T03:42:41.722Z,75.95
2023-02-17T03:43:59.157Z,76.15
2023-02-17T03:44:38.199Z,76.49
2023-02-17T03:45:18.732Z,76.79
2023-02-17T03:45:58.114Z,76.84
2023-02-17T03:47:15.236Z,76.16
2023-02-17T03:47:55.119Z,76.64
2023-02-17T03:48:34.113Z,76.64
2023-02-17T03:49:14.408Z,76.31
2023-02-17T03:50:17.751Z,76.50
2023-02-17T03:51:36.413Z,77.13
2023-02-17T03:52:19.708Z,77.41
2023-02-17T03:53:37.142Z,77.35
2023-02-17T03:55:37.271Z,76.95
2023-02-17T03:56:19.511Z,77.22
2023-02-17T03:57:22.754Z,76.96
2023-02-17T03:58:05.249Z,77.05
2023-02-17T03:58:46.064Z,77.02
2023-02-17T03:59:25.279Z,77.66
2023-02-17T04:00:07.118Z,77.14
2023-02-17T04:00:55.993Z,77.01
2023-02-17T04:01:36.380Z,77.45
2023-02-17T04:02:18.168Z,77.28
2023-02-17T04:03:01.468Z,77.11
2023-02-17T04:04:36.745Z,77.52
2023-02-17T04:05:16.113Z,77.28
2023-02-17T04:07:14.803Z,76.95
2023-02-17T04:08:35.238Z,77.57
2023-02-17T04:09:17.871Z,77.65
2023-02-17T04:10:00.097Z,77.19
2023-02-17T04:11:31.907Z,77.67
2023-02-17T04:12:52.065Z,76.92
2023-02-17T04:13:32.069Z,77.87
2023-02-17T04:14:11.378Z,77.49
2023-02-17T04:14:58.040Z,77.56
2023-02-17T04:15:38.135Z,77.59
2023-02-17T04:16:17.456Z,77.22
2023-02-17T04:17:07.006Z,76.70
2023-02-17T04:17:46.090Z,77.70
2023-02-17T04:18:25.330Z,77.77
2023-02-17T04:19:08.039Z,77.05
2023-02-17T04:19:47.245Z,77.59
2023-02-17T04:20:27.257Z,77.61
2023-02-17T04:21:06.682Z,77.46
2023-02-17T04:21:46.174Z,77.17
2023-02-17T04:22:25.109Z,77.09
2023-02-17T04:23:04.356Z,77.70
2023-02-17T04:23:45.361Z,77.37
2023-02-17T04:24:25.692Z,77.52
2023-02-17T04:25:06.526Z,77.56
2023-02-17T04:26:28.597Z,78.26
2023-02-17T04:27:09.085Z,77.33
2023-02-17T04:27:48.173Z,77.60
2023-02-17T04:28:28.715Z,77.77
2023-02-17T04:29:49.510Z,77.78
2023-02-17T04:30:33.287Z,77.50
2023-02-17T04:31:52.355Z,78.09
2023-02-17T04:33:11.538Z,77.91
2023-02-17T04:35:10.324Z,78.58
2023-02-17T04:35:50.714Z,78.31
2023-02-17T04:36:31.370Z,78.20
2023-02-17T04:37:11.242Z,77.95
2023-02-17T04:37:51.855Z,78.09
2023-02-17T04:38:33.113Z,78.33
2023-02-17T04:39:15.157Z,80.01
2023-02-17T04:39:54.184Z,78.64
2023-02-17T04:40:33.969Z,77.72
2023-02-17T04:41:14.210Z,78.57
2023-02-17T04:41:54.077Z,79.76
2023-02-17T04:42:41.004Z,80.01
2023-02-17T04:43:28.649Z,79.06
2023-02-17T04:44:09.386Z,77.30
2023-02-17T04:44:49.176Z,77.76
2023-02-17T04:45:29.965Z,78.49
2023-02-17T04:46:11.191Z,78.04
2023-02-17T04:46:51.197Z,77.78
2023-02-17T04:47:30.177Z,76.98
2023-02-17T04:48:10.613Z,77.77
2023-02-17T04:49:31.818Z,76.39
2023-02-17T04:50:51.814Z,76.53
2023-02-17T04:51:32.276Z,75.63
2023-02-17T04:52:51.629Z,75.75
2023-02-17T04:54:51.307Z,74.80
2023-02-17T04:55:31.855Z,75.09
2023-02-17T04:56:11.170Z,74.63
2023-02-17T04:56:51.110Z,75.50
2023-02-17T04:57:30.799Z,75.11
2023-02-17T04:58:22.968Z,74.94
2023-02-17T04:59:03.225Z,75.61
2023-02-17T04:59:44.013Z,75.12
2023-02-17T05:01:02.700Z,75.72
2023-02-17T05:01:41.844Z,75.17
2023-02-17T05:02:26.967Z,75.39
2023-02-17T05:03:06.242Z,76.55
2023-02-17T05:03:46.377Z,76.36
2023-02-17T05:04:26.236Z,76.36
2023-02-17T05:05:05.598Z,76.12
2023-02-17T05:05:52.982Z,76.76
2023-02-17T05:06:40.991Z,77.21
2023-02-17T05:07:45.673Z,76.58
2023-02-17T05:09:04.682Z,76.71
2023-02-17T05:11:05.408Z,77.47
2023-02-17T05:11:54.040Z,76.85
2023-02-17T05:12:33.348Z,76.88
2023-02-17T05:13:13.227Z,77.25
2023-02-17T05:13:52.212Z,77.30
2023-02-17T05:14:32.263Z,77.80
2023-02-17T05:15:13.662Z,77.37
2023-02-17T05:15:54.291Z,77.40
2023-02-17T05:16:57.775Z,78.43
2023-02-17T05:17:36.723Z,77.42
2023-02-17T05:18:19.191Z,77.97
2023-02-17T05:18:59.163Z,77.96
2023-02-17T05:19:39.201Z,77.98
2023-02-17T05:20:26.207Z,78.67
2023-02-17T05:21:06.162Z,77.96
2023-02-17T05:21:46.360Z,78.17
2023-02-17T05:23:22.726Z,78.61
2023-02-17T05:25:05.043Z,77.70
2023-02-17T05:27:11.095Z,78.14
2023-02-17T05:28:15.301Z,78.45
2023-02-17T05:30:27.444Z,78.65
2023-02-17T05:31:45.856Z,78.43
2023-02-17T05:33:03.290Z,77.55
2023-02-17T05:33:42.265Z,78.54
2023-02-17T05:34:21.473Z,78.01
2023-02-17T05:35:00.233Z,77.55
2023-02-17T05:35:39.240Z,77.82
2023-02-17T05:36:19.180Z,77.98
2023-02-17T05:37:22.298Z,78.42
2023-02-17T05:38:39.968Z,77.65
2023-02-17T05:43:15.628Z,78.69
2023-02-17T05:47:45.226Z,78.39
2023-02-17T05:48:51.929Z,78.50
2023-02-17T05:49:31.297Z,79.08
2023-02-17T05:51:51.368Z,78.90
2023-02-17T05:53:24.484Z,78.39
2023-02-17T05:54:12.949Z,78.79
2023-02-17T05:54:53.351Z,78.95
2023-02-17T05:57:32.786Z,78.21
2023-02-17T05:58:54.346Z,78.17
2023-02-17T06:01:14.496Z,78.49
2023-02-17T06:02:01.006Z,78.22
2023-02-17T06:02:43.313Z,77.85
2023-02-17T06:03:23.602Z,78.07
2023-02-17T06:04:04.317Z,77.44
2023-02-17T06:04:44.364Z,77.98
2023-02-17T06:05:23.519Z,78.01
2023-02-17T06:06:05.031Z,77.04
2023-02-17T06:06:43.862Z,77.00
2023-02-17T06:07:23.191Z,77.23
2023-02-17T06:08:02.245Z,77.18
2023-02-17T06:08:49.111Z,77.27
2023-02-17T06:09:28.265Z,77.00
2023-02-17T06:10:09.712Z,77.33
2023-02-17T06:10:49.197Z,77.17
2023-02-17T06:11:53.270Z,77.79
2023-02-17T06:13:19.971Z,77.13
2023-02-17T06:13:59.421Z,76.83
2023-02-17T06:14:42.920Z,76.97
2023-02-17T06:15:22.416Z,76.38
2023-02-17T06:16:02.447Z,77.16
2023-02-17T06:17:22.562Z,77.41
2023-02-17T06:18:05.241Z,77.28
2023-02-17T06:18:44.556Z,77.38
2023-02-17T06:19:27.215Z,77.76
2023-02-17T06:20:09.458Z,77.11
2023-02-17T06:20:49.237Z,77.63
2023-02-17T06:21:36.592Z,77.82
2023-02-17T06:22:18.504Z,77.11
2023-02-17T06:22:59.306Z,77.70
2023-02-17T06:23:38.830Z,78.25
2023-02-17T06:24:19.417Z,77.41
2023-02-17T06:26:01.809Z,76.11
2023-02-17T06:27:28.353Z,76.73
2023-02-17T06:28:15.787Z,75.67
2023-02-17T06:28:55.203Z,75.95
2023-02-17T06:29:34.387Z,76.05
2023-02-17T06:30:15.226Z,76.03
2023-02-17T06:31:03.580Z,75.65
2023-02-17T06:33:03.462Z,74.86
2023-02-17T06:33:49.020Z,75.18
2023-02-17T06:34:39.074Z,74.64
2023-02-17T06:35:19.424Z,75.10
2023-02-17T06:36:01.201Z,74.18
2023-02-17T06:36:40.308Z,74.29
2023-02-17T06:37:44.137Z,72.93
2023-02-17T06:38:47.998Z,73.19
2023-02-17T06:40:06.839Z,73.09
2023-02-17T06:41:32.095Z,72.68
2023-02-17T06:42:11.350Z,72.38
2023-02-17T06:42:53.198Z,72.10
2023-02-17T06:43:33.269Z,72.38
2023-02-17T06:44:12.336Z,72.91
2023-02-17T06:44:51.298Z,72.43
2023-02-17T06:45:31.343Z,72.11
2023-02-17T06:46:10.438Z,72.49
2023-02-17T06:46:51.492Z,73.02
2023-02-17T06:47:38.111Z,73.45
2023-02-17T06:48:20.234Z,73.15
2023-02-17T06:49:01.717Z,73.41
2023-02-17T06:50:21.740Z,72.88
2023-02-17T06:53:42.296Z,73.45
2023-02-17T06:54:22.615Z,73.49
2023-02-17T06:56:21.756Z,73.67
2023-02-17T06:57:09.214Z,73.38
2023-02-17T06:57:58.115Z,73.69
2023-02-17T06:58:38.386Z,73.68
2023-02-17T06:59:42.840Z,73.69
2023-02-17T07:01:26.291Z,73.30
2023-02-17T07:02:05.976Z,72.89
2023-02-17T07:02:45.322Z,73.34
2023-02-17T07:03:25.978Z,73.72
2023-02-17T07:04:05.737Z,73.92
2023-02-17T07:04:49.735Z,73.76
2023-02-17T07:05:28.831Z,73.80
2023-02-17T07:06:35.960Z,73.53
2023-02-17T07:07:15.756Z,72.78
2023-02-17T07:08:00.547Z,74.19
2023-02-17T07:08:50.370Z,73.43
2023-02-17T07:09:30.587Z,74.42
2023-02-17T07:10:20.126Z,74.08
2023-02-17T07:11:10.233Z,74.21
2023-02-17T07:11:51.235Z,74.17
2023-02-17T07:12:31.194Z,73.68
2023-02-17T07:13:10.203Z,73.87
2023-02-17T07:13:49.182Z,74.71
2023-02-17T07:14:29.443Z,74.49
2023-02-17T07:15:12.229Z,74.15
2023-02-17T07:15:54.212Z,74.12
2023-02-17T07:16:34.007Z,74.26
2023-02-17T07:17:37.749Z,74.04
2023-02-17T07:19:02.319Z,73.42
2023-02-17T07:19:41.411Z,74.07
2023-02-17T07:20:44.805Z,74.57
2023-02-17T07:21:23.811Z,74.53
2023-02-17T07:22:04.632Z,74.44
2023-02-17T07:23:25.656Z,74.51
2023-02-17T07:25:23.247Z,74.89
2023-02-17T07:26:05.832Z,74.68
2023-02-17T07:26:45.261Z,74.37
2023-02-17T07:27:24.211Z,74.70
2023-02-17T07:28:04.686Z,74.02
2023-02-17T07:28:45.737Z,74.13
2023-02-17T07:29:40.089Z,74.16
2023-02-17T07:30:27.132Z,74.73
2023-02-17T07:31:15.386Z,74.60
2023-02-17T07:31:57.308Z,75.37
2023-02-17T07:32:39.464Z,75.34
2023-02-17T07:33:28.048Z,75.54
2023-02-17T07:34:07.439Z,75.25
2023-02-17T07:34:47.318Z,75.67
2023-02-17T07:35:27.585Z,75.50
2023-02-17T07:36:17.393Z,75.64
2023-02-17T07:37:02.439Z,76.09
2023-02-17T07:38:31.119Z,76.07
2023-02-17T07:39:11.491Z,75.79
2023-02-17T07:39:53.274Z,76.07
2023-02-17T07:40:56.677Z,76.70
2023-02-17T07:42:57.026Z,75.96
2023-02-17T07:44:18.741Z,76.66
2023-02-17T07:45:46.118Z,77.06
2023-02-17T07:46:28.196Z,76.19
2023-02-17T07:47:07.458Z,76.50
2023-02-17T07:47:50.223Z,76.80
2023-02-17T07:48:42.446Z,75.37
2023-02-17T07:49:34.108Z,76.18
2023-02-17T07:50:14.900Z,76.08
2023-02-17T07:50:55.255Z,76.30
2023-02-17T07:51:44.162Z,76.33
2023-02-17T07:52:26.312Z,76.25
2023-02-17T07:53:13.486Z,75.85
2023-02-17T07:56:08.483Z,74.94
2023-02-17T07:56:51.208Z,75.60
2023-02-17T07:57:32.007Z,75.49
2023-02-17T07:58:11.633Z,75.34
2023-02-17T07:59:45.831Z,75.66
2023-02-17T08:01:12.312Z,75.90
2023-02-17T08:02:17.290Z,74.65
2023-02-17T08:09:33.781Z,75.12
2023-02-17T08:10:48.419Z,74.63
2023-02-17T08:11:49.003Z,74.21
2023-02-17T08:12:48.041Z,74.26
2023-02-17T08:15:38.070Z,73.27
2023-02-17T08:16:30.227Z,73.88
2023-02-17T08:17:34.242Z,73.09
2023-02-17T08:20:15.985Z,73.22
2023-02-17T08:21:47.918Z,72.69
2023-02-17T08:23:08.903Z,72.87
2023-02-17T08:24:14.384Z,72.71
2023-02-17T08:25:00.212Z,73.17
2023-02-17T08:28:13.313Z,72.56
2023-02-17T08:29:05.171Z,72.25
2023-02-17T08:29:47.418Z,72.91
2023-02-17T08:30:38.546Z,71.99
2023-02-17T08:31:25.228Z,71.33
2023-02-17T08:32:31.140Z,72.95
2023-02-17T08:36:52.157Z,71.85
2023-02-17T08:39:05.284Z,71.95
2023-02-17T08:41:30.859Z,70.67
2023-02-17T08:43:36.711Z,70.61
2023-02-17T08:44:26.483Z,70.25
2023-02-17T08:45:30.726Z,70.93
2023-02-17T08:46:50.964Z,70.85
2023-02-17T08:49:22.934Z,71.15
2023-02-17T08:50:12.020Z,71.92
2023-02-17T08:50:51.239Z,71.62
2023-02-17T08:51:54.844Z,70.48
2023-02-17T08:53:21.968Z,71.56
2023-02-17T08:54:04.076Z,70.86
2023-02-17T08:55:49.586Z,69.78
2023-02-17T08:56:29.241Z,70.36
2023-02-17T08:57:08.496Z,69.45
2023-02-17T08:58:00.158Z,69.24
2023-02-17T08:58:40.681Z,69.84
2023-02-17T08:59:48.090Z,68.40
2023-02-17T09:01:04.137Z,68.69
2023-02-17T09:01:46.237Z,68.69
2023-02-17T09:02:26.802Z,67.86
2023-02-17T09:05:06.063Z,68.05
2023-02-17T09:05:49.987Z,67.12
2023-02-17T09:07:33.059Z,66.69
2023-02-17T09:08:15.819Z,65.78
2023-02-17T09:10:19.441Z,65.91
2023-02-17T09:10:58.980Z,65.53
2023-02-17T09:11:39.479Z,65.16
2023-02-17T09:12:19.501Z,64.36
2023-02-17T09:13:01.522Z,64.28
2023-02-17T09:14:42.336Z,63.50
2023-02-17T09:17:01.353Z,60.79
2023-02-17T09:18:04.903Z,60.72
2023-02-17T09:19:32.770Z,61.26
2023-02-17T09:20:24.038Z,60.88
2023-02-17T09:21:10.438Z,60.61
2023-02-17T09:23:35.915Z,61.91
2023-02-17T09:24:14.894Z,61.52
2023-02-17T09:25:19.066Z,61.76
2023-02-17T09:28:24.223Z,60.87
2023-02-17T09:29:03.922Z,60.92
2023-02-17T09:29:53.302Z,60.43
2023-02-17T09:30:33.335Z,60.17
2023-02-17T09:31:37.452Z,59.99
2023-02-17T09:32:59.200Z,60.54
2023-02-17T09:33:39.196Z,60.57
2023-02-17T09:34:21.403Z,60.33
2023-02-17T09:35:02.175Z,60.19
2023-02-17T09:35:49.480Z,59.89
2023-02-17T09:36:53.205Z,60.74
2023-02-17T09:38:57.325Z,60.58
2023-02-17T09:40:43.025Z,60.95
2023-02-17T09:42:44.057Z,61.13
2023-02-17T09:43:48.437Z,60.30
2023-02-17T09:44:31.280Z,60.11
2023-02-17T09:45:21.438Z,59.97
2023-02-17T09:46:01.254Z,60.13
2023-02-17T09:47:01.848Z,60.70
2023-02-17T09:47:42.352Z,60.90
2023-02-17T09:48:30.303Z,60.64
2023-02-17T09:50:24.629Z,61.22
2023-02-17T09:51:12.704Z,60.86
2023-02-17T09:52:16.426Z,60.85
2023-02-17T09:53:06.461Z,60.28
2023-02-17T09:54:09.802Z,60.45
2023-02-17T09:55:16.070Z,59.83
2023-02-17T09:56:25.609Z,60.32
2023-02-17T09:59:29.769Z,60.04
2023-02-17T10:00:59.132Z,60.51
2023-02-17T10:01:56.011Z,60.91
2023-02-17T10:03:52.405Z,59.90
2023-02-17T10:05:20.212Z,60.64
2023-02-17T10:07:37.052Z,60.41
2023-02-17T10:08:27.044Z,60.61
2023-02-17T10:10:08.509Z,61.38
2023-02-17T10:13:00.573Z,59.84
2023-02-17T10:13:50.877Z,60.48
2023-02-17T10:15:25.443Z,60.64
2023-02-17T10:16:16.567Z,59.57
2023-02-17T10:17:17.243Z,60.37
2023-02-17T10:19:02.665Z,61.21
2023-02-17T10:20:36.271Z,60.87
2023-02-17T10:21:35.476Z,60.52
2023-02-17T10:22:18.331Z,60.18
2023-02-17T10:23:11.747Z,59.87
2023-02-17T10:24:02.076Z,59.78
2023-02-17T10:24:55.193Z,59.17
2023-02-17T10:26:00.101Z,58.82
2023-02-17T10:27:13.527Z,58.95
2023-02-17T10:28:11.093Z,59.19
2023-02-17T10:29:14.702Z,59.69
2023-02-17T10:30:22.879Z,59.06
2023-02-17T10:32:59.398Z,57.46
2023-02-17T10:34:57.926Z,58.50
2023-02-17T10:35:48.265Z,58.41
2023-02-17T10:36:48.638Z,58.28
2023-02-17T10:38:01.362Z,57.91
2023-02-17T10:41:16.099Z,56.85
2023-02-17T10:41:57.384Z,57.24
2023-02-17T10:42:46.081Z,56.86
2023-02-17T10:43:25.396Z,56.62
2023-02-17T10:44:13.559Z,57.39
2023-02-17T10:45:43.369Z,57.05
2023-02-17T10:46:29.993Z,57.44
2023-02-17T10:47:11.495Z,57.71
2023-02-17T10:47:57.118Z,57.35
2023-02-17T10:48:47.151Z,56.74
2023-02-17T10:49:33.295Z,56.65
2023-02-17T10:50:22.366Z,57.73
2023-02-17T10:51:05.268Z,57.07
2023-02-17T10:52:01.338Z,56.61
2023-02-17T10:52:51.100Z,56.06
2023-02-17T10:53:40.710Z,55.91
2023-02-17T10:54:42.985Z,57.12
2023-02-17T10:56:09.373Z,57.42
2023-02-17T10:56:48.398Z,56.42
2023-02-17T10:57:54.499Z,55.86
2023-02-17T10:58:34.458Z,56.70
2023-02-17T10:59:28.680Z,56.70
2023-02-17T11:00:15.156Z,56.55
2023-02-17T11:00:58.154Z,56.35
2023-02-17T11:02:31.446Z,56.47
2023-02-17T11:03:06.453Z,55.92
2023-02-17T11:04:19.217Z,56.73
2023-02-17T11:05:57.935Z,55.18
2023-02-17T11:06:45.151Z,55.48
2023-02-17T11:07:42.360Z,54.90
2023-02-17T11:08:31.364Z,55.45
2023-02-17T11:09:21.567Z,56.59
2023-02-17T11:10:41.556Z,56.63
2023-02-17T11:12:11.651Z,55.41
2023-02-17T11:12:51.523Z,55.62
2023-02-17T11:13:39.076Z,56.60
2023-02-17T11:14:28.222Z,54.78
2023-02-17T11:15:20.884Z,55.97
2023-02-17T11:16:00.919Z,55.69
2023-02-17T11:16:59.275Z,56.12
2023-02-17T11:17:41.543Z,55.70
2023-02-17T11:19:22.869Z,55.00
2023-02-17T11:20:15.539Z,54.42
2023-02-17T11:21:03.824Z,54.61
2023-02-17T11:22:33.430Z,54.85
2023-02-17T11:23:22.350Z,56.06
2023-02-17T11:24:02.915Z,55.12
2023-02-17T11:25:00.121Z,53.88
2023-02-17T11:26:26.056Z,53.51
2023-02-17T11:27:11.910Z,52.18
2023-02-17T11:27:56.906Z,53.71
2023-02-17T11:28:36.839Z,52.43
2023-02-17T11:29:21.890Z,53.10
2023-02-17T11:30:15.118Z,52.29
2023-02-17T11:31:00.330Z,52.85
2023-02-17T11:32:09.250Z,53.55
2023-02-17T11:34:19.178Z,52.55
2023-02-17T11:35:20.317Z,52.13
2023-02-17T11:36:38.735Z,50.92
2023-02-17T11:37:27.174Z,51.58
2023-02-17T11:38:20.210Z,51.47
2023-02-17T11:39:17.825Z,51.09
2023-02-17T11:39:57.639Z,51.60
2023-02-17T11:40:39.933Z,51.21
2023-02-17T11:41:21.115Z,50.69
2023-02-17T11:42:00.605Z,50.66
2023-02-17T11:43:05.170Z,50.43
2023-02-17T11:44:29.273Z,50.82
2023-02-17T11:46:47.385Z,51.68
2023-02-17T11:47:56.369Z,51.54
2023-02-17T11:49:16.515Z,52.01
2023-02-17T11:50:38.952Z,51.59
2023-02-17T11:52:42.019Z,51.02
2023-02-17T11:54:05.734Z,50.27
2023-02-17T11:54:59.679Z,50.34
2023-02-17T11:56:17.107Z,50.60
2023-02-17T11:58:13.976Z,51.31
2023-02-17T12:00:10.316Z,50.58
2023-02-17T12:00:52.482Z,51.26
2023-02-17T12:01:43.575Z,50.75
2023-02-17T12:03:16.643Z,51.58
2023-02-17T12:04:26.494Z,51.11
2023-02-17T12:05:13.203Z,50.26
2023-02-17T12:05:55.313Z,50.32
2023-02-17T12:07:05.767Z,49.20
2023-02-17T12:07:52.037Z,48.94
2023-02-17T12:08:38.474Z,49.30
2023-02-17T12:09:35.710Z,49.75
2023-02-17T12:10:46.765Z,49.83
2023-02-17T12:11:51.989Z,49.09
2023-02-17T12:13:46.870Z,49.33
2023-02-17T12:15:32.422Z,49.55
2023-02-17T12:16:33.195Z,48.90
2023-02-17T12:17:52.670Z,48.84
2023-02-17T12:19:19.786Z,48.58
2023-02-17T12:20:29.452Z,47.85
2023-02-17T12:21:25.078Z,48.31
2023-02-17T12:22:15.342Z,48.17
2023-02-17T12:22:50.398Z,48.00
2023-02-17T12:23:57.801Z,47.71
2023-02-17T12:24:40.469Z,47.52
2023-02-17T12:25:27.157Z,47.69
2023-02-17T12:26:32.120Z,47.70
2023-02-17T12:27:39.270Z,47.84
2023-02-17T12:28:45.288Z,48.20
2023-02-17T12:29:48.901Z,47.55
2023-02-17T12:30:30.840Z,47.26
2023-02-17T12:31:26.675Z,48.06
2023-02-17T12:34:04.592Z,47.20
2023-02-17T12:34:46.486Z,47.67
2023-02-17T12:35:58.615Z,47.57
2023-02-17T12:37:27.483Z,47.37
2023-02-17T12:38:17.627Z,47.04
2023-02-17T12:39:03.033Z,48.25
2023-02-17T12:39:50.073Z,47.79
2023-02-17T12:40:37.713Z,48.07
2023-02-17T12:41:41.364Z,47.36
2023-02-17T12:43:27.660Z,47.40
2023-02-17T12:44:07.206Z,46.95
2023-02-17T12:45:13.943Z,47.14
2023-02-17T12:46:39.595Z,46.95
2023-02-17T12:47:32.392Z,47.71
2023-02-17T12:48:38.495Z,47.14
2023-02-17T12:49:17.191Z,47.14
2023-02-17T12:50:07.736Z,48.14
2023-02-17T12:51:40.833Z,47.05
2023-02-17T12:53:44.684Z,47.69
2023-02-17T12:54:24.224Z,46.89
2023-02-17T12:55:22.141Z,46.68
2023-02-17T12:57:15.071Z,46.90
2023-02-17T12:58:25.447Z,47.33
2023-02-17T13:00:00.639Z,47.45
2023-02-17T13:00:38.248Z,47.26
2023-02-17T13:01:29.166Z,46.66
2023-02-17T13:02:16.395Z,47.02
2023-02-17T13:03:04.323Z,46.30
2023-02-17T13:03:43.931Z,46.62
2023-02-17T13:04:26.403Z,46.91